Time;durP1;ratioP1;P1;durP2;ratioP2;P2;SDS_P1;SDS_P2;PMS_P1;PMS_P2;Temp;Humidity;BMP_temperature;BMP_pressure;BME280_temperature;BME280_humidity;BME280_pressure;Samples;Min_cycle;Max_cycle;Signal;HPM_P1;HPM_P2
2022/05/27 00:02:00;;;;;;;9.25;3.40;;;13.70;99.90;;;;;;4955993;28;20046;-60
2022/05/27 00:04:26;;;;;;;9.02;3.53;;;14.80;99.90;;;;;;4973549;28;20051;-60
2022/05/27 00:06:52;;;;;;;9.95;3.90;;;13.60;99.90;;;;;;4973482;28;20430;-60
2022/05/27 00:09:18;;;;;;;8.20;3.38;;;13.60;99.90;;;;;;4973589;28;20058;-60
2022/05/27 00:11:44;;;;;;;11.93;3.80;;;13.60;99.90;;;;;;4973543;28;20059;-60
2022/05/27 00:14:09;;;;;;;10.48;4.00;;;13.60;99.90;;;;;;4973616;28;20582;-61
2022/05/27 00:16:35;;;;;;;12.65;3.88;;;13.60;99.90;;;;;;4956049;28;20054;-62
2022/05/27 00:19:01;;;;;;;11.70;3.80;;;;;;;;;;4955708;28;20050;-60
2022/05/27 00:21:27;;;;;;;9.77;3.90;;;13.60;99.90;;;;;;4973374;28;20047;-60
2022/05/27 00:23:53;;;;;;;11.55;4.05;;;13.60;99.90;;;;;;4973256;28;20046;-60
2022/05/27 00:26:19;;;;;;;8.98;3.75;;;13.60;99.90;;;;;;4973343;28;20072;-60
2022/05/27 00:28:44;;;;;;;12.32;4.18;;;13.60;99.90;;;;;;4973116;28;20058;-60
2022/05/27 00:31:10;;;;;;;10.60;4.30;;;13.50;99.90;;;;;;4973059;28;20105;-60
2022/05/27 00:33:38;;;;;;;12.27;4.00;;;13.50;99.90;;;;;;4972963;28;20098;-61
2022/05/27 00:36:10;;;;;;;10.57;4.57;;;12.90;99.90;;;;;;4973214;28;20050;-60
2022/05/27 00:38:37;;;;;;;10.90;4.35;;;13.70;99.90;;;;;;4972859;28;20055;-60
2022/05/27 00:41:03;;;;;;;7.60;3.75;;;13.50;99.90;;;;;;4972968;28;20050;-60
2022/05/27 00:43:29;;;;;;;10.25;4.20;;;13.50;99.90;;;;;;4955566;28;20388;-60
2022/05/27 00:46:05;;;;;;;10.13;4.10;;;13.50;99.90;;;;;;4972930;28;20047;-60
2022/05/27 00:48:34;;;;;;;8.60;4.18;;;13.50;99.90;;;;;;4973140;28;20051;-60
2022/05/27 00:51:00;;;;;;;9.15;3.97;;;13.50;99.90;;;;;;4972893;28;20118;-60
2022/05/27 00:53:38;;;;;;;9.85;4.00;;;13.20;99.90;;;;;;4972858;28;20051;-60
2022/05/27 00:56:07;;;;;;;10.93;4.00;;;13.50;99.90;;;;;;4972709;28;20085;-60
2022/05/27 00:58:37;;;;;;;9.52;3.80;;;13.50;99.90;;;;;;4955800;28;20406;-60
2022/05/27 01:01:03;;;;;;;9.60;3.63;;;;;;;;;;5002134;23;20089;-84
2022/05/27 01:03:30;;;;;;;8.65;3.50;;;;;;;;;;4955105;28;20055;-84
2022/05/27 01:05:56;;;;;;;10.15;3.72;;;;;;;;;;4924632;28;20260;-84
2022/05/27 01:08:24;;;;;;;6.93;3.72;;;13.40;99.90;;;;;;4976906;28;20058;-84
2022/05/27 01:10:50;;;;;;;9.48;3.80;;;;;;;;;;4978128;28;20175;-84
2022/05/27 01:13:16;;;;;;;8.15;3.50;;;;;;;;;;4978324;28;20046;-83
2022/05/27 01:16:14;;;;;;;8.23;3.47;;;12.70;99.90;;;;;;4978090;28;20449;-84
2022/05/27 01:22:05;;;;;;;11.55;4.18;;;13.60;99.90;;;;;;4978832;28;20058;-84
2022/05/27 01:25:13;;;;;;;7.45;3.80;;;13.40;99.90;;;;;;4978566;28;20414;-84
2022/05/27 01:28:03;;;;;;;10.43;3.80;;;13.20;99.90;;;;;;4978219;28;20051;-84
2022/05/27 01:30:29;;;;;;;10.65;4.32;;;;;;;;;;4977230;28;20109;-83
2022/05/27 01:33:17;;;;;;;11.65;4.22;;;13.50;99.90;;;;;;4944366;28;20070;-84
2022/05/27 01:36:06;;;;;;;11.88;4.78;;;13.50;99.90;;;;;;4959281;28;20054;-84
2022/05/27 01:38:51;;;;;;;12.13;4.60;;;13.40;99.90;;;;;;4943136;28;20576;-84
2022/05/27 01:41:52;;;;;;;9.83;5.00;;;13.40;99.90;;;;;;4959342;28;20062;-84
2022/05/27 01:44:18;;;;;;;14.43;5.20;;;;;;;;;;4863397;29;20588;-83
2022/05/27 01:46:46;;;;;;;12.60;5.30;;;12.70;99.90;;;;;;4863536;29;20053;-84
2022/05/27 01:49:31;;;;;;;12.85;5.45;;;13.20;99.90;;;;;;4878888;29;20084;-84
2022/05/27 01:52:11;;;;;;;15.25;5.38;;;13.20;99.90;;;;;;4849598;29;20139;-83
2022/05/27 01:54:55;;;;;;;11.88;5.20;;;13.30;99.90;;;;;;4883114;29;20593;-83
2022/05/27 01:57:45;;;;;;;16.63;5.75;;;13.30;99.90;;;;;;4882663;29;20061;-84
2022/05/27 02:00:18;;;;;;;18.05;6.45;;;13.30;99.90;;;;;;4884122;29;20155;-84
2022/05/27 02:02:55;;;;;;;13.70;6.35;;;13.20;99.90;;;;;;4870577;29;20160;-83
2022/05/27 02:05:33;;;;;;;17.55;6.20;;;13.20;99.90;;;;;;4885739;29;20056;-83
2022/05/27 02:08:07;;;;;;;15.20;6.20;;;12.60;99.90;;;;;;4900782;29;20053;-84
2022/05/27 02:10:57;;;;;;;14.65;6.75;;;12.60;99.90;;;;;;4900895;29;20056;-84
2022/05/27 02:13:42;;;;;;;15.20;6.57;;;13.00;99.90;;;;;;4900373;29;20049;-84
2022/05/27 02:16:11;;;;;;;15.27;6.15;;;13.00;99.90;;;;;;4886801;29;20506;-83
2022/05/27 02:18:37;;;;;;;19.25;6.95;;;;;;;;;;4900801;29;20096;-83
2022/05/27 02:21:14;;;;;;;16.85;7.05;;;12.90;99.90;;;;;;4978669;28;20129;-84
2022/05/27 02:23:54;;;;;;;20.65;6.78;;;12.80;99.90;;;;;;4981721;28;20382;-83
2022/05/27 02:26:24;;;;;;;19.00;6.80;;;12.80;99.90;;;;;;4981291;28;20096;-83
2022/05/27 02:28:58;;;;;;;17.95;7.25;;;12.80;99.90;;;;;;4998572;28;20054;-83
2022/05/27 02:31:38;;;;;;;17.40;7.32;;;12.80;99.90;;;;;;4998451;28;20054;-83
2022/05/27 02:36:56;;;;;;;21.73;7.30;;;;;;;;;;4981398;28;20058;-84
2022/05/27 02:39:26;;;;;;;22.73;7.22;;;12.80;99.90;;;;;;4981634;28;20780;-83
2022/05/27 02:42:07;;;;;;;16.17;6.60;;;12.70;99.90;;;;;;4964674;28;20082;-83
2022/05/27 02:44:57;;;;;;;17.98;6.43;;;12.70;99.90;;;;;;4980760;28;20054;-84
2022/05/27 02:47:54;;;;;;;21.63;6.40;;;12.30;99.90;;;;;;4980797;28;20057;-84
2022/05/27 02:50:36;;;;;;;20.73;6.88;;;12.70;99.90;;;;;;4997581;28;20157;-84
2022/05/27 02:53:28;;;;;;;18.60;7.03;;;12.60;99.90;;;;;;4964153;28;20062;-83
2022/05/27 02:56:12;;;;;;;21.58;7.03;;;12.20;99.90;;;;;;4998391;28;20046;-83
2022/05/27 02:58:38;;;;;;;19.77;6.32;;;;;;;;;;4997243;28;20057;-83
2022/05/27 03:01:05;;;;;;;18.83;6.00;;;12.60;99.90;;;;;;4997900;28;20074;-83
2022/05/27 03:03:34;;;;;;;22.40;6.38;;;12.60;99.90;;;;;;4963710;28;20477;-83
2022/05/27 03:06:26;;;;;;;24.30;6.15;;;12.60;99.90;;;;;;4997582;28;20465;-83
2022/05/27 03:09:15;;;;;;;19.00;6.20;;;12.70;99.90;;;;;;4997367;28;20129;-83
2022/05/27 03:11:50;;;;;;;23.58;6.45;;;12.80;99.90;;;;;;4997076;28;20047;-84
2022/05/27 03:14:52;;;;;;;26.90;6.38;;;12.50;99.90;;;;;;4997153;28;20093;-83
2022/05/27 03:17:42;;;;;;;24.38;6.28;;;12.60;99.90;;;;;;4996511;28;20078;-83
2022/05/27 03:20:22;;;;;;;23.45;6.90;;;12.40;99.90;;;;;;4979235;28;20097;-83
2022/05/27 03:23:17;;;;;;;22.05;6.18;;;12.50;99.90;;;;;;4978678;28;20521;-84
2022/05/27 03:26:05;;;;;;;24.10;6.57;;;12.80;99.90;;;;;;4979028;28;20069;-83
2022/05/27 03:28:31;;;;;;;23.10;6.50;;;;;;;;;;4979165;28;20050;-84
2022/05/27 03:31:30;;;;;;;23.38;6.65;;;12.60;99.90;;;;;;4979283;28;20054;-84
2022/05/27 03:34:15;;;;;;;26.92;5.95;;;12.40;99.90;;;;;;4996271;28;20054;-83
2022/05/27 03:36:56;;;;;;;25.73;6.75;;;12.70;99.90;;;;;;4996355;28;20501;-83
2022/05/27 03:39:29;;;;;;;23.83;6.28;;;12.90;99.90;;;;;;4996245;28;20161;-84
2022/05/27 03:42:01;;;;;;;28.30;6.22;;;12.50;99.90;;;;;;4996331;28;20350;-84
2022/05/27 03:44:30;;;;;;;22.20;5.85;;;12.60;99.90;;;;;;4978320;28;20197;-84
2022/05/27 03:46:58;;;;;;;29.95;5.78;;;12.50;99.90;;;;;;4996113;28;20088;-84
2022/05/27 03:49:25;;;;;;;23.17;6.32;;;12.70;99.90;;;;;;4978538;28;20077;-84
2022/05/27 03:52:11;;;;;;;20.80;5.47;;;12.50;99.90;;;;;;4979891;28;20046;-83
2022/05/27 03:54:38;;;;;;;26.35;6.20;;;;;;;;;;4996552;28;20054;-83
2022/05/27 03:57:09;;;;;;;29.00;5.50;;;12.70;99.90;;;;;;4997660;28;20053;-83
2022/05/27 03:59:35;;;;;;;25.17;5.82;;;;;;;;;;4981066;28;20141;-83
2022/05/27 04:02:01;;;;;;;25.83;5.68;;;;;;;;;;4980292;28;20054;-83
2022/05/27 04:04:28;;;;;;;23.73;5.32;;;12.70;99.90;;;;;;4998884;28;20496;-84
2022/05/27 04:06:58;;;;;;;19.27;5.30;;;12.70;99.90;;;;;;4981032;28;20054;-83
2022/05/27 04:09:24;;;;;;;25.35;5.80;;;12.70;99.90;;;;;;4998736;28;20054;-84
2022/05/27 04:11:53;;;;;;;25.90;5.97;;;;;;;;;;4982745;28;20138;-83
2022/05/27 04:14:19;;;;;;;23.17;5.57;;;;;;;;;;4982355;28;20079;-83
2022/05/27 04:16:48;;;;;;;24.80;5.57;;;;;;;;;;4966343;28;20054;-83
2022/05/27 04:19:17;;;;;;;24.30;5.38;;;12.80;99.90;;;;;;4981904;28;20050;-83
2022/05/27 04:21:43;;;;;;;20.75;5.38;;;;;;;;;;4969962;28;20073;-83
2022/05/27 04:24:12;;;;;;;26.15;5.43;;;;;;;;;;5002986;28;20493;-84
2022/05/27 04:26:38;;;;;;;26.42;5.10;;;12.70;99.90;;;;;;4966898;28;20050;-83
2022/05/27 04:29:09;;;;;;;25.88;5.07;;;12.80;99.90;;;;;;4979616;28;20065;-83
2022/05/27 04:31:35;;;;;;;21.35;4.80;;;;;;;;;;4983085;28;20133;-83
2022/05/27 04:34:06;;;;;;;29.60;5.72;;;;;;;;;;4985084;28;20112;-83
2022/05/27 04:36:35;;;;;;;21.25;5.05;;;;;;;;;;5006583;28;20042;-84
2022/05/27 04:39:01;;;;;;;21.67;5.25;;;;;;;;;;5006625;28;20073;-83
2022/05/27 04:41:27;;;;;;;22.05;5.60;;;;;;;;;;4989958;28;20057;-83
2022/05/27 04:43:53;;;;;;;24.58;4.93;;;;;;;;;;5009936;28;20050;-83
2022/05/27 04:46:18;;;;;;;21.15;5.32;;;12.90;99.90;;;;;;5009410;28;20101;-83
2022/05/27 04:48:49;;;;;;;24.05;5.18;;;12.60;99.90;;;;;;4973088;28;20058;-83
2022/05/27 04:51:15;;;;;;;24.33;5.03;;;;;;;;;;5007274;28;20102;-83
2022/05/27 04:53:41;;;;;;;22.75;5.28;;;;;;;;;;5008388;28;20054;-83
2022/05/27 04:56:09;;;;;;;29.52;5.22;;;12.90;99.90;;;;;;4992124;28;20526;-84
2022/05/27 04:58:34;;;;;;;20.98;4.57;;;13.20;99.90;;;;;;4991675;28;20046;-84
2022/05/27 05:01:00;;;;;;;28.50;4.88;;;13.10;99.90;;;;;;4987058;28;20531;-83
2022/05/27 05:03:26;;;;;;;21.48;4.35;;;13.10;99.90;;;;;;5003656;28;20046;-83
2022/05/27 05:05:52;;;;;;;22.70;4.60;;;13.00;99.90;;;;;;4981839;28;20105;-83
2022/05/27 05:11:22;;;;;;;20.75;4.13;;;;;;;;;;5001117;28;20069;-83
2022/05/27 05:13:48;;;;;;;20.50;4.45;;;;;;;;;;5002331;28;20159;-83
2022/05/27 05:16:14;;;;;;;23.00;4.85;;;;;;;;;;4985787;28;20066;-84
2022/05/27 05:18:40;;;;;;;14.70;3.70;;;;;;;;;;4999229;28;20054;-83
2022/05/27 05:21:06;;;;;;;19.63;4.30;;;;;;;;;;4995094;28;20464;-82
2022/05/27 05:23:35;;;;;;;24.55;5.00;;;;;;;;;;4961491;28;20077;-83
2022/05/27 05:26:01;;;;;;;17.67;3.70;;;;;;;;;;4994847;28;20089;-83
2022/05/27 05:28:27;;;;;;;19.00;4.20;;;;;;;;;;4998407;28;20058;-83
2022/05/27 05:30:59;;;;;;;17.23;3.92;;;;;;;;;;4981708;28;20077;-83
2022/05/27 05:33:25;;;;;;;17.20;3.88;;;;;;;;;;4998740;28;20100;-84
2022/05/27 05:35:54;;;;;;;16.42;3.67;;;;;;;;;;4998994;28;20477;-83
2022/05/27 05:38:20;;;;;;;14.82;3.45;;;;;;;;;;4998541;28;20050;-83
2022/05/27 05:40:46;;;;;;;14.55;3.50;;;;;;;;;;4998469;28;20064;-83
2022/05/27 05:43:13;;;;;;;14.85;4.13;;;16.50;99.90;;;;;;4982795;28;20109;-84
2022/05/27 05:45:39;;;;;;;18.52;3.70;;;;;;;;;;4989860;28;20058;-82
2022/05/27 05:48:06;;;;;;;14.65;3.65;;;16.00;99.90;;;;;;5005822;28;20057;-84
2022/05/27 05:50:33;;;;;;;20.02;3.70;;;;;;;;;;4988266;28;20078;-84
2022/05/27 05:52:59;;;;;;;14.02;3.47;;;;;;;;;;4985427;28;20072;-84
2022/05/27 05:55:26;;;;;;;22.30;4.00;;;15.70;99.90;;;;;;4988332;28;20475;-84
2022/05/27 05:57:57;;;;;;;17.83;3.35;;;15.30;99.90;;;;;;4987230;28;20050;-84
2022/05/27 06:00:25;;;;;;;14.77;3.70;;;15.50;99.90;;;;;;4984304;28;20050;-84
2022/05/27 06:02:57;;;;;;;14.35;3.50;;;15.80;99.90;;;;;;4969191;28;20086;-84
2022/05/27 06:05:27;;;;;;;16.83;3.60;;;16.30;99.90;;;;;;4985540;28;20093;-83
2022/05/27 06:08:01;;;;;;;17.75;4.13;;;17.40;99.90;;;;;;4987877;28;20035;-83
2022/05/27 06:10:33;;;;;;;11.93;3.20;;;18.20;99.90;;;;;;4985946;28;20066;-83
2022/05/27 06:13:21;;;;;;;10.63;3.10;;;20.10;99.90;;;;;;4937230;28;20425;-84
2022/05/27 06:15:52;;;;;;;10.85;3.17;;;21.30;99.90;;;;;;4981125;28;20055;-82
2022/05/27 06:18:21;;;;;;;14.85;3.30;;;;;;;;;;4948300;29;20134;-83
2022/05/27 06:20:47;;;;;;;17.13;3.40;;;;;;;;;;4948842;29;20055;-85
2022/05/27 06:23:14;;;;;;;18.00;3.80;;;;;;;;;;4971424;29;20055;-84
2022/05/27 06:25:46;;;;;;;11.50;3.20;;;;;;;;;;4952516;29;20118;-84
2022/05/27 06:36:27;;;;;;;15.32;3.20;;;;;;;;;;4956528;29;20075;-82
2022/05/27 06:38:55;;;;;;;13.93;3.30;;;;;;;;;;4920468;29;20074;-84
2022/05/27 06:41:21;;;;;;;14.30;3.22;;;;;;;;;;4968674;29;20107;-82
2022/05/27 06:43:50;;;;;;;12.93;3.30;;;;;;;;;;4969676;29;20130;-82
2022/05/27 06:46:16;;;;;;;18.23;3.35;;;;;;;;;;4969478;29;20047;-83
2022/05/27 06:48:42;;;;;;;12.90;3.65;;;;;;;;;;4954238;28;20048;-82
2022/05/27 06:51:08;;;;;;;17.83;3.00;;;23.40;74.90;;;;;;4977962;28;20046;-82
2022/05/27 06:53:34;;;;;;;13.02;3.30;;;;;;;;;;4955673;28;20520;-82
2022/05/27 06:56:07;;;;;;;14.73;3.58;;;22.50;68.10;;;;;;4974052;28;20106;-83
2022/05/27 06:58:40;;;;;;;12.13;3.53;;;21.40;74.80;;;;;;4942384;29;20078;-84
2022/05/27 07:01:09;;;;;;;14.98;3.45;;;21.30;75.60;;;;;;4969099;29;20058;-84
2022/05/27 07:03:37;;;;;;;14.13;3.40;;;;;;;;;;4971819;29;20083;-83
2022/05/27 07:06:08;;;;;;;17.92;3.78;;;21.70;82.70;;;;;;4956401;29;20111;-84
2022/05/27 07:08:34;;;;;;;14.43;4.28;;;22.00;72.90;;;;;;4954904;29;20086;-83
2022/05/27 07:11:00;;;;;;;13.60;3.25;;;;;;;;;;4955480;29;20107;-84
2022/05/27 07:13:26;;;;;;;12.23;3.50;;;;;;;;;;4971886;29;20047;-82
2022/05/27 07:15:53;;;;;;;12.30;3.78;;;;;;;;;;4939059;29;20110;-83
2022/05/27 07:18:19;;;;;;;13.32;3.28;;;21.30;75.90;;;;;;4970232;29;20075;-83
2022/05/27 07:20:57;;;;;;;13.18;3.13;;;21.20;76.30;;;;;;4969493;29;20055;-83
2022/05/27 07:23:26;;;;;;;12.23;3.30;;;;;;;;;;4984384;28;20050;-83
2022/05/27 07:25:52;;;;;;;11.50;3.20;;;;;;;;;;4987966;28;20077;-83
2022/05/27 07:28:18;;;;;;;14.77;3.75;;;;;;;;;;5005649;28;20054;-83
2022/05/27 07:30:43;;;;;;;10.43;3.20;;;20.80;92.10;;;;;;4988447;28;20074;-84
2022/05/27 07:33:10;;;;;;;13.27;3.35;;;;;;;;;;5009749;28;20050;-84
2022/05/27 07:35:39;;;;;;;13.55;3.20;;;;;;;;;;4974824;28;20058;-83
2022/05/27 07:38:05;;;;;;;18.48;4.10;;;;;;;;;;4956169;29;20081;-83
2022/05/27 07:40:31;;;;;;;15.75;3.33;;;;;;;;;;4968796;29;20058;-82
2022/05/27 07:42:57;;;;;;;18.00;3.55;;;;;;;;;;4966606;29;20110;-83
2022/05/27 07:45:27;;;;;;;14.43;3.67;;;;;;;;;;4963787;29;20055;-82
2022/05/27 07:47:54;;;;;;;11.68;3.30;;;19.10;86.80;;;;;;4947228;29;20055;-83
2022/05/27 07:50:23;;;;;;;14.80;3.50;;;;;;;;;;4943498;29;20063;-83
2022/05/27 07:52:51;;;;;;;17.73;3.78;;;18.80;93.00;;;;;;4962833;29;20051;-83
2022/05/27 07:55:17;;;;;;;14.13;3.58;;;18.20;93.30;;;;;;4947294;29;20106;-82
2022/05/27 07:57:45;;;;;;;12.30;3.13;;;18.50;88.20;;;;;;4965964;29;20490;-83
2022/05/27 08:00:20;;;;;;;15.07;3.50;;;18.70;88.80;;;;;;4963799;29;20060;-83
2022/05/27 08:02:48;;;;;;;13.57;3.58;;;;;;;;;;4961301;29;20062;-82
2022/05/27 08:05:30;;;;;;;13.30;3.80;;;19.10;90.60;;;;;;4966157;28;20067;-82
2022/05/27 08:07:59;;;;;;;12.68;3.40;;;19.40;82.60;;;;;;4983903;28;20055;-82
2022/05/27 08:10:31;;;;;;;14.93;3.60;;;22.40;82.40;;;;;;4964895;28;20503;-83
2022/05/27 08:12:58;;;;;;;14.25;3.42;;;18.60;89.10;;;;;;4965143;28;20710;-82
2022/05/27 08:15:24;;;;;;;13.88;3.58;;;;;;;;;;4964953;28;20134;-82
2022/05/27 08:17:50;;;;;;;18.17;3.72;;;19.00;90.50;;;;;;4983725;28;20050;-82
2022/05/27 08:20:20;;;;;;;13.13;3.65;;;18.80;78.80;;;;;;4964735;28;20057;-81
2022/05/27 08:23:00;;;;;;;13.50;3.58;;;18.70;90.70;;;;;;4966466;28;20106;-82
2022/05/27 08:25:30;;;;;;;13.68;3.20;;;18.50;90.00;;;;;;4982665;28;20087;-82
2022/05/27 08:28:06;;;;;;;13.10;3.58;;;18.70;91.90;;;;;;4969490;28;20051;-82
2022/05/27 08:30:34;;;;;;;11.68;3.55;;;18.80;83.60;;;;;;4966984;28;20043;-82
2022/05/27 08:33:00;;;;;;;17.25;3.90;;;;;;;;;;4967137;28;20063;-81
2022/05/27 08:38:26;;;;;;;10.48;3.13;;;18.90;82.10;;;;;;4949202;29;20058;-82
2022/05/27 08:41:30;;;;;;;11.13;2.97;;;22.80;87.10;;;;;;4947425;29;20055;-82
2022/05/27 08:43:58;;;;;;;14.23;3.20;;;;;;;;;;4962374;29;20083;-80
2022/05/27 08:46:49;;;;;;;11.95;3.15;;;18.90;84.40;;;;;;4967240;29;20059;-81
2022/05/27 08:49:33;;;;;;;13.13;3.08;;;19.10;84.70;;;;;;4954962;29;20063;-82
2022/05/27 08:52:19;;;;;;;9.48;3.15;;;18.90;73.20;;;;;;4954647;29;20058;-82
2022/05/27 08:54:51;;;;;;;13.38;3.08;;;18.80;72.30;;;;;;4969282;29;20514;-82
2022/05/27 09:00:14;;;;;;;12.77;2.90;;;18.30;83.20;;;;;;4986329;28;20043;-81
2022/05/27 09:02:57;;;;;;;11.98;2.78;;;18.50;72.10;;;;;;4955749;28;20051;-80
2022/05/27 09:05:32;;;;;;;10.70;3.10;;;18.30;70.80;;;;;;4972587;28;20102;-79
2022/05/27 09:08:05;;;;;;;12.73;2.83;;;18.20;72.00;;;;;;4969738;28;20063;-80
2022/05/27 09:10:43;;;;;;;12.20;3.15;;;18.30;78.90;;;;;;4970195;28;20054;-82
2022/05/27 09:13:34;;;;;;;8.20;2.58;;;17.70;80.80;;;;;;4968508;28;20066;-81
2022/05/27 09:16:17;;;;;;;14.25;2.63;;;18.50;80.70;;;;;;4974964;28;20061;-82
2022/05/27 09:19:09;;;;;;;13.07;2.70;;;18.20;82.00;;;;;;4975864;28;20050;-80
2022/05/27 09:21:47;;;;;;;10.48;3.00;;;18.80;80.70;;;;;;4975955;28;20177;-80
2022/05/27 09:24:52;;;;;;;13.73;2.63;;;18.60;79.30;;;;;;4975442;28;20057;-82
2022/05/27 09:27:44;;;;;;;13.13;3.03;;;18.80;79.40;;;;;;4919189;28;20065;-83
2022/05/27 09:30:15;;;;;;;9.27;2.83;;;18.50;80.80;;;;;;4994016;28;20055;-82
2022/05/27 09:32:52;;;;;;;19.77;3.15;;;18.30;69.90;;;;;;4991964;28;20083;-82
2022/05/27 09:35:29;;;;;;;9.70;2.88;;;18.20;69.70;;;;;;4992186;28;20089;-81
2022/05/27 09:37:58;;;;;;;12.18;2.90;;;18.00;70.80;;;;;;4975206;28;20050;-82
2022/05/27 09:40:30;;;;;;;16.23;2.60;;;18.10;70.90;;;;;;4992757;28;20063;-81
2022/05/27 09:43:22;;;;;;;14.52;2.50;;;19.10;82.60;;;;;;4977605;28;20051;-82
2022/05/27 09:45:54;;;;;;;10.57;2.92;;;18.40;70.40;;;;;;4976144;28;20057;-83
2022/05/27 09:48:26;;;;;;;12.05;2.50;;;18.50;69.10;;;;;;4973409;28;20051;-81
2022/05/27 09:50:52;;;;;;;9.75;2.60;;;18.60;77.90;;;;;;4974179;28;20106;-81
2022/05/27 09:53:27;;;;;;;12.57;3.00;;;18.70;78.50;;;;;;4992472;28;20039;-81
2022/05/27 09:56:08;;;;;;;11.88;2.88;;;19.20;79.00;;;;;;4989414;28;20094;-81
2022/05/27 09:58:37;;;;;;;12.75;3.17;;;18.80;69.40;;;;;;4971037;28;20083;-81
2022/05/27 10:01:19;;;;;;;10.73;2.67;;;18.80;71.20;;;;;;4989670;28;20055;-83
2022/05/27 10:03:45;;;;;;;10.52;2.83;;;18.60;72.10;;;;;;4989866;28;20055;-82
2022/05/27 10:06:17;;;;;;;13.45;2.97;;;19.00;72.50;;;;;;4974731;28;20062;-81
2022/05/27 10:08:50;;;;;;;10.20;2.40;;;18.20;74.80;;;;;;4971593;28;20051;-82
2022/05/27 10:11:24;;;;;;;12.73;2.53;;;19.10;79.10;;;;;;4991309;28;20094;-82
2022/05/27 10:14:28;;;;;;;8.77;2.45;;;19.10;70.80;;;;;;4993278;28;20099;-80
2022/05/27 10:17:10;;;;;;;8.80;2.47;;;18.60;79.50;;;;;;4994531;28;20106;-81
2022/05/27 10:19:40;;;;;;;9.65;2.22;;;22.40;71.00;;;;;;4994695;28;20100;-81
2022/05/27 10:22:28;;;;;;;13.98;2.50;;;19.00;78.20;;;;;;4995828;28;20138;-81
2022/05/27 10:25:02;;;;;;;9.13;2.60;;;18.80;69.00;;;;;;4996813;28;20560;-81
2022/05/27 10:27:40;;;;;;;9.55;2.33;;;19.20;69.30;;;;;;4980789;28;20078;-82
2022/05/27 10:30:24;;;;;;;7.30;2.30;;;19.50;79.50;;;;;;4979717;28;20054;-81
2022/05/27 10:32:50;;;;;;;18.95;2.97;;;19.20;70.40;;;;;;4976853;28;20399;-82
2022/05/27 10:35:16;;;;;;;12.48;2.63;;;19.10;78.90;;;;;;4976833;28;20054;-82
2022/05/27 10:38:22;;;;;;;12.73;2.80;;;18.10;78.10;;;;;;4994645;28;20178;-81
2022/05/27 10:41:15;;;;;;;11.90;2.60;;;18.60;80.10;;;;;;4978257;28;20067;-80
2022/05/27 10:43:54;;;;;;;12.75;3.10;;;18.80;72.40;;;;;;4995691;28;20061;-80
2022/05/27 10:46:27;;;;;;;12.02;2.70;;;17.60;81.50;;;;;;4983244;28;20065;-81
2022/05/27 10:49:17;;;;;;;9.15;2.58;;;18.30;73.20;;;;;;4994705;28;20054;-83
2022/05/27 10:52:00;;;;;;;10.27;3.00;;;18.00;83.80;;;;;;4975636;28;20522;-82
2022/05/27 10:54:42;;;;;;;11.32;3.10;;;19.20;77.10;;;;;;4972474;28;20137;-82
2022/05/27 11:04:05;;;;;;;9.50;2.65;;;18.30;80.70;;;;;;4989863;28;20094;-82
2022/05/27 11:07:14;;;;;;;11.07;2.83;;;17.90;80.20;;;;;;4971867;29;20059;-81
2022/05/27 11:09:54;;;;;;;14.88;2.83;;;18.20;70.60;;;;;;4987491;28;20065;-80
2022/05/27 11:15:32;;;;;;;12.90;3.40;;;18.70;70.30;;;;;;4971227;28;20047;-81
2022/05/27 11:18:11;;;;;;;11.68;3.25;;;19.60;78.70;;;;;;4988293;28;20109;-83
2022/05/27 11:20:48;;;;;;;10.55;2.65;;;18.90;77.30;;;;;;4992178;28;20055;-81
2022/05/27 11:23:35;;;;;;;15.23;3.30;;;18.80;76.60;;;;;;4993214;28;20077;-82
2022/05/27 11:26:12;;;;;;;14.05;2.88;;;19.00;67.60;;;;;;4990674;28;20050;-81
2022/05/27 11:29:04;;;;;;;10.55;2.80;;;18.80;68.50;;;;;;4971425;28;20082;-81
2022/05/27 11:31:49;;;;;;;14.10;3.15;;;19.00;72.40;;;;;;4990130;28;20051;-81
2022/05/27 11:34:32;;;;;;;11.15;3.00;;;19.80;80.60;;;;;;4991224;28;20078;-82
2022/05/27 11:37:29;;;;;;;14.40;3.15;;;19.20;71.40;;;;;;4989360;28;20079;-81
2022/05/27 11:40:10;;;;;;;14.10;2.88;;;18.50;70.40;;;;;;4987023;28;20070;-81
2022/05/27 11:43:14;;;;;;;12.70;2.90;;;18.60;71.00;;;;;;4968759;28;20059;-82
2022/05/27 11:45:53;;;;;;;14.55;2.72;;;18.50;72.30;;;;;;4955741;29;20070;-82
2022/05/27 11:48:39;;;;;;;14.90;3.13;;;18.30;77.50;;;;;;4953012;29;20043;-80
2022/05/27 11:51:20;;;;;;;11.23;2.88;;;18.40;70.10;;;;;;4957544;29;20063;-80
2022/05/27 11:54:14;;;;;;;13.80;2.83;;;18.30;65.80;;;;;;4971610;29;20055;-81
2022/05/27 11:56:56;;;;;;;13.98;2.90;;;18.00;69.00;;;;;;4971842;29;20039;-80
2022/05/27 11:59:36;;;;;;;13.02;3.17;;;17.80;71.40;;;;;;4968934;29;20058;-81
2022/05/27 12:02:14;;;;;;;20.50;3.40;;;17.80;81.80;;;;;;4970438;29;20059;-81
2022/05/27 12:05:11;;;;;;;14.20;3.28;;;18.00;73.80;;;;;;4969456;29;20031;-81
2022/05/27 12:07:56;;;;;;;13.55;3.25;;;18.10;79.80;;;;;;4963171;29;20087;-80
2022/05/27 12:10:28;;;;;;;12.00;2.70;;;18.20;71.80;;;;;;4969631;29;20051;-80
2022/05/27 12:13:00;;;;;;;10.63;2.72;;;18.50;72.50;;;;;;4953319;29;20059;-81
2022/05/27 12:15:36;;;;;;;10.93;2.55;;;18.50;73.70;;;;;;4953712;29;20468;-81
2022/05/27 12:18:07;;;;;;;10.65;3.00;;;18.00;70.50;;;;;;4951584;29;20107;-81
2022/05/27 12:20:36;;;;;;;14.15;2.97;;;18.30;68.50;;;;;;4971239;29;20082;-81
2022/05/27 12:23:08;;;;;;;10.93;3.20;;;18.50;78.70;;;;;;4971805;29;20055;-81
2022/05/27 12:25:46;;;;;;;15.10;2.88;;;18.50;71.40;;;;;;4955093;29;20039;-80
2022/05/27 12:28:15;;;;;;;8.80;2.67;;;18.10;78.90;;;;;;4973386;29;20106;-83
2022/05/27 12:30:43;;;;;;;13.77;2.47;;;20.90;71.50;;;;;;4968831;29;20122;-82
2022/05/27 12:33:12;;;;;;;13.77;3.35;;;18.10;70.50;;;;;;4970023;29;20047;-79
2022/05/27 12:35:37;;;;;;;13.38;3.30;;;17.90;71.20;;;;;;4951695;29;20131;-80
2022/05/27 12:38:22;;;;;;;11.40;2.63;;;18.30;82.30;;;;;;4937017;29;20059;-80
2022/05/27 12:40:52;;;;;;;10.10;3.00;;;18.30;72.00;;;;;;4964903;29;20063;-80
2022/05/27 12:43:28;;;;;;;11.40;2.88;;;19.10;80.30;;;;;;4970666;29;20087;-81
2022/05/27 12:46:00;;;;;;;12.38;2.75;;;19.10;79.80;;;;;;4974778;28;20071;-82
2022/05/27 12:48:29;;;;;;;16.38;2.95;;;22.20;71.40;;;;;;4973525;29;20114;-82
2022/05/27 12:51:15;;;;;;;12.15;3.63;;;19.20;69.20;;;;;;4956807;29;20082;-82
2022/05/27 12:53:58;;;;;;;10.15;2.67;;;18.70;78.50;;;;;;4974502;29;20094;-81
2022/05/27 13:02:14;;;;;;;21.17;3.15;;;18.50;68.70;;;;;;4966816;28;20542;-81
2022/05/27 13:05:01;;;;;;;12.18;2.90;;;18.30;84.10;;;;;;4962564;28;20085;-81
2022/05/27 13:07:32;;;;;;;11.07;2.85;;;18.40;72.30;;;;;;4975267;28;20058;-82
2022/05/27 13:10:18;;;;;;;17.52;3.45;;;19.10;80.00;;;;;;4980342;28;20413;-81
2022/05/27 13:13:02;;;;;;;13.82;2.95;;;18.70;72.60;;;;;;4970878;28;20050;-82
2022/05/27 13:15:33;;;;;;;13.40;3.47;;;18.40;82.00;;;;;;4988912;28;20050;-81
2022/05/27 13:18:08;;;;;;;13.57;3.00;;;18.10;72.90;;;;;;4987511;28;20050;-81
2022/05/27 13:20:52;;;;;;;9.63;2.83;;;18.30;82.30;;;;;;4987238;28;20055;-80
2022/05/27 13:23:21;;;;;;;15.73;3.28;;;18.10;87.20;;;;;;4990130;28;20785;-81
2022/05/27 13:26:19;;;;;;;14.25;3.05;;;17.70;84.30;;;;;;4972407;28;20057;-81
2022/05/27 13:28:58;;;;;;;16.52;3.38;;;17.50;85.30;;;;;;4988654;28;20051;-81
2022/05/27 13:31:31;;;;;;;14.73;3.05;;;17.70;88.90;;;;;;4990143;28;20074;-81
2022/05/27 13:34:07;;;;;;;16.50;3.30;;;18.00;87.00;;;;;;4970500;28;20059;-81
2022/05/27 13:36:57;;;;;;;15.05;3.10;;;17.60;83.90;;;;;;4991521;28;20053;-81
2022/05/27 13:39:29;;;;;;;13.25;3.10;;;18.40;84.30;;;;;;4987245;28;20047;-81
2022/05/27 13:41:55;;;;;;;18.15;3.60;;;18.30;86.60;;;;;;4966498;28;20082;-82
2022/05/27 13:44:24;;;;;;;18.35;3.20;;;18.10;75.50;;;;;;4968039;28;20050;-82
2022/05/27 13:46:54;;;;;;;13.23;3.40;;;18.90;83.90;;;;;;4986310;28;20074;-80
2022/05/27 13:49:31;;;;;;;15.15;3.53;;;19.80;73.60;;;;;;4972594;28;20054;-83
2022/05/27 13:52:02;;;;;;;15.10;2.88;;;17.20;82.90;;;;;;4989131;28;20062;-81
2022/05/27 13:54:38;;;;;;;15.35;3.33;;;17.80;75.20;;;;;;4990447;28;20051;-81
2022/05/27 13:57:08;;;;;;;15.52;2.85;;;18.20;86.30;;;;;;4980888;28;20049;-84
2022/05/27 13:59:38;;;;;;;12.73;2.85;;;17.90;78.10;;;;;;4979446;28;20059;-82
2022/05/27 14:02:13;;;;;;;11.93;3.28;;;18.30;76.20;;;;;;4991477;28;20046;-82
2022/05/27 14:05:03;;;;;;;14.27;2.92;;;18.30;76.90;;;;;;4991160;28;20051;-81
2022/05/27 14:07:44;;;;;;;12.55;2.75;;;18.80;79.90;;;;;;4973019;28;20050;-82
2022/05/27 14:10:19;;;;;;;13.07;2.83;;;18.50;71.90;;;;;;4993983;28;20051;-82
2022/05/27 14:12:47;;;;;;;12.27;2.70;;;18.20;70.10;;;;;;4974858;29;20039;-83
2022/05/27 14:15:17;;;;;;;11.85;2.85;;;20.50;74.60;;;;;;4973908;29;20417;-81
2022/05/27 14:17:47;;;;;;;10.32;2.60;;;18.30;81.70;;;;;;4974340;29;20047;-81